createdAt,value
2018-07-19T00:01:56.653Z,69.53
2018-07-19T00:04:24.790Z,69.07
2018-07-19T00:06:52.977Z,69.51
2018-07-19T00:09:21.152Z,69.62
2018-07-19T00:11:49.350Z,69.10
2018-07-19T00:14:17.579Z,70.31
2018-07-19T00:16:45.745Z,70.70
2018-07-19T00:19:13.982Z,70.23
2018-07-19T00:21:42.257Z,69.63
2018-07-19T00:24:10.501Z,69.41
2018-07-19T00:26:38.705Z,70.25
2018-07-19T00:29:06.901Z,70.07
2018-07-19T00:31:35.203Z,69.93
2018-07-19T00:34:03.487Z,69.39
2018-07-19T00:36:31.741Z,69.34
2018-07-19T00:39:00.028Z,70.46
2018-07-19T00:41:28.304Z,71.13
2018-07-19T00:43:56.654Z,70.63
2018-07-19T00:46:24.921Z,70.97
2018-07-19T00:48:53.073Z,70.14
2018-07-19T00:51:21.263Z,70.30
2018-07-19T00:53:49.533Z,69.29
2018-07-19T00:56:17.786Z,70.25
2018-07-19T00:58:46.042Z,70.03
2018-07-19T01:01:14.218Z,69.42
2018-07-19T01:03:42.445Z,70.71
2018-07-19T01:06:10.723Z,71.56
2018-07-19T01:08:39.023Z,71.17
2018-07-19T01:11:07.423Z,71.73
2018-07-19T01:13:35.628Z,70.21
2018-07-19T01:16:03.803Z,70.46
2018-07-19T01:18:32.002Z,70.55
2018-07-19T01:21:00.248Z,70.29
2018-07-19T01:23:28.585Z,71.19
2018-07-19T01:25:56.803Z,70.74
2018-07-19T01:28:24.997Z,72.18
2018-07-19T01:30:53.143Z,70.34
2018-07-19T01:33:21.422Z,71.74
2018-07-19T01:35:49.649Z,70.68
2018-07-19T01:38:17.865Z,70.56
2018-07-19T01:40:46.171Z,71.35
2018-07-19T01:43:14.456Z,70.16
2018-07-19T01:45:42.724Z,70.79
2018-07-19T01:48:10.970Z,70.65
2018-07-19T01:50:39.164Z,70.47
2018-07-19T01:53:08.130Z,70.51
2018-07-19T01:55:36.308Z,70.79
2018-07-19T01:58:04.499Z,70.53
2018-07-19T02:00:32.690Z,71.59
2018-07-19T02:03:01.368Z,70.46
2018-07-19T02:05:29.631Z,70.15
2018-07-19T02:07:57.890Z,70.81
2018-07-19T02:10:26.240Z,70.76
2018-07-19T02:12:54.496Z,70.30
2018-07-19T02:15:22.634Z,70.57
2018-07-19T02:17:50.855Z,70.27
2018-07-19T02:20:19.065Z,71.33
2018-07-19T02:22:47.316Z,70.62
2018-07-19T02:25:15.566Z,71.14
2018-07-19T02:27:43.811Z,71.06
2018-07-19T02:30:12.204Z,71.33
2018-07-19T02:32:40.372Z,70.93
2018-07-19T02:35:08.669Z,71.36
2018-07-19T02:37:36.980Z,71.85
2018-07-19T02:40:05.332Z,72.69
2018-07-19T02:42:33.523Z,72.02
2018-07-19T02:45:01.673Z,73.27
2018-07-19T02:47:29.826Z,72.24
2018-07-19T02:49:58.180Z,71.53
2018-07-19T02:52:26.349Z,72.06
2018-07-19T02:54:54.638Z,72.92
2018-07-19T02:57:22.991Z,72.25
2018-07-19T02:59:51.184Z,72.29
2018-07-19T03:02:19.384Z,72.33
2018-07-19T03:04:47.589Z,72.41
2018-07-19T03:07:15.762Z,72.97
2018-07-19T03:09:43.994Z,72.79
2018-07-19T03:12:12.278Z,72.71
2018-07-19T03:14:40.611Z,72.57
2018-07-19T03:17:08.878Z,74.32
2018-07-19T03:19:37.080Z,73.57
2018-07-19T03:22:05.456Z,73.05
2018-07-19T03:24:33.609Z,73.51
2018-07-19T03:27:01.775Z,72.59
2018-07-19T03:29:30.133Z,73.53
2018-07-19T03:31:58.429Z,73.17
2018-07-19T03:34:26.611Z,73.75
2018-07-19T03:36:54.788Z,73.03
2018-07-19T03:39:22.949Z,72.57
2018-07-19T03:41:51.188Z,72.99
2018-07-19T03:44:19.494Z,72.78
2018-07-19T03:46:47.724Z,72.17
2018-07-19T03:49:16.045Z,71.40
2018-07-19T03:51:44.337Z,71.97
2018-07-19T03:54:12.672Z,72.93
2018-07-19T03:56:40.894Z,72.13
2018-07-19T03:59:09.109Z,70.33
2018-07-19T04:01:37.323Z,66.35
2018-07-19T04:04:05.595Z,63.92
2018-07-19T04:06:33.788Z,63.37
2018-07-19T04:09:02.021Z,60.99
2018-07-19T04:11:30.236Z,57.93
2018-07-19T04:13:58.535Z,57.50
2018-07-19T04:16:26.812Z,59.42
2018-07-19T04:18:55.028Z,64.21
2018-07-19T04:21:23.211Z,66.26
2018-07-19T04:23:51.371Z,68.22
2018-07-19T04:26:20.633Z,69.87
2018-07-19T04:28:48.794Z,69.88
2018-07-19T04:31:16.985Z,70.75
2018-07-19T04:33:45.237Z,70.40
2018-07-19T04:36:13.533Z,69.87
2018-07-19T04:38:41.790Z,71.53
2018-07-19T04:41:10.016Z,71.81
2018-07-19T04:43:38.205Z,72.46
2018-07-19T04:46:06.433Z,72.15
2018-07-19T04:48:34.587Z,72.03
2018-07-19T04:51:03.014Z,71.93
2018-07-19T04:53:31.299Z,73.10
2018-07-19T04:55:59.596Z,73.18
2018-07-19T04:58:27.859Z,72.17
2018-07-19T05:00:56.078Z,73.77
2018-07-19T05:03:24.377Z,74.53
2018-07-19T05:05:52.578Z,73.99
2018-07-19T05:08:20.766Z,72.19
2018-07-19T05:10:49.090Z,72.70
2018-07-19T05:13:17.276Z,73.32
2018-07-19T05:15:45.574Z,73.52
2018-07-19T05:18:13.766Z,72.72
2018-07-19T05:20:42.000Z,74.06
2018-07-19T05:23:10.417Z,72.30
2018-07-19T05:25:38.597Z,72.16
2018-07-19T05:28:06.933Z,71.78
2018-07-19T05:30:35.075Z,71.59
2018-07-19T05:33:12.173Z,72.39
2018-07-19T05:37:17.419Z,72.17
2018-07-19T05:39:45.844Z,73.17
2018-07-19T05:42:14.003Z,72.93
2018-07-19T05:44:42.229Z,72.84
2018-07-19T05:47:10.456Z,72.56
2018-07-19T05:49:38.615Z,73.97
2018-07-19T05:52:06.784Z,73.53
2018-07-19T05:54:34.990Z,73.24
2018-07-19T05:57:03.167Z,72.94
2018-07-19T05:59:31.317Z,72.36
2018-07-19T06:01:59.489Z,72.21
2018-07-19T06:04:27.716Z,73.16
2018-07-19T06:06:55.877Z,73.18
2018-07-19T06:09:24.100Z,73.94
2018-07-19T06:11:52.374Z,72.67
2018-07-19T06:14:20.673Z,73.36
2018-07-19T06:16:48.978Z,73.66
2018-07-19T06:19:17.170Z,72.89
2018-07-19T06:21:45.337Z,71.96
2018-07-19T06:24:13.524Z,72.47
2018-07-19T06:26:41.818Z,72.28
2018-07-19T06:29:10.061Z,72.04
2018-07-19T06:31:38.312Z,71.81
2018-07-19T06:34:06.565Z,70.74
2018-07-19T06:36:35.080Z,72.24
2018-07-19T06:39:03.296Z,71.16
2018-07-19T06:41:31.506Z,71.08
2018-07-19T06:43:59.677Z,70.68
2018-07-19T06:46:27.844Z,70.26
2018-07-19T06:48:56.140Z,70.34
2018-07-19T06:51:24.382Z,69.26
2018-07-19T06:53:52.636Z,68.98
2018-07-19T06:56:20.896Z,69.43
2018-07-19T06:58:49.098Z,69.07
2018-07-19T07:01:17.246Z,68.88
2018-07-19T07:03:45.565Z,68.75
2018-07-19T07:06:13.774Z,68.55
2018-07-19T07:08:41.920Z,67.68
2018-07-19T07:11:10.179Z,68.16
2018-07-19T07:13:38.495Z,67.24
2018-07-19T07:16:06.794Z,67.82
2018-07-19T07:18:34.984Z,68.20
2018-07-19T07:21:03.249Z,67.85
2018-07-19T07:23:31.499Z,67.13
2018-07-19T07:25:59.651Z,66.08
2018-07-19T07:28:27.861Z,65.61
2018-07-19T07:30:56.623Z,66.47
2018-07-19T07:33:24.781Z,66.44
2018-07-19T07:35:52.996Z,66.62
2018-07-19T07:38:21.150Z,65.69
2018-07-19T07:40:49.544Z,65.85
2018-07-19T07:43:17.721Z,65.41
2018-07-19T07:45:53.757Z,64.46
2018-07-19T07:48:21.972Z,63.70
2018-07-19T07:50:50.106Z,64.32
2018-07-19T07:53:18.374Z,63.94
2018-07-19T07:55:46.630Z,63.08
2018-07-19T07:58:15.810Z,63.26
2018-07-19T08:00:43.962Z,63.58
2018-07-19T08:03:12.265Z,63.28
2018-07-19T08:05:40.701Z,62.82
2018-07-19T08:08:08.871Z,62.99
2018-07-19T08:10:37.156Z,63.17
2018-07-19T08:13:05.333Z,62.08
2018-07-19T08:15:33.481Z,62.30
2018-07-19T08:18:01.672Z,60.99
2018-07-19T08:20:29.927Z,61.97
2018-07-19T08:22:58.167Z,61.54
2018-07-19T08:25:26.445Z,61.33
2018-07-19T08:27:54.719Z,62.47
2018-07-19T08:30:23.027Z,60.91
2018-07-19T08:32:51.194Z,61.21
2018-07-19T08:35:19.404Z,61.57
2018-07-19T08:37:47.601Z,61.27
2018-07-19T08:40:15.846Z,61.07
2018-07-19T08:42:44.305Z,60.00
2018-07-19T08:45:12.769Z,60.61
2018-07-19T08:47:41.133Z,60.52
2018-07-19T08:50:09.339Z,59.07
2018-07-19T08:52:37.598Z,60.29
2018-07-19T08:55:05.944Z,58.94
2018-07-19T08:57:34.774Z,58.73
2018-07-19T09:00:02.980Z,59.20
2018-07-19T09:02:31.125Z,59.33
2018-07-19T09:04:59.333Z,57.56
2018-07-19T09:07:27.663Z,59.22
2018-07-19T09:09:55.816Z,58.97
2018-07-19T09:12:24.064Z,59.58
2018-07-19T09:14:52.274Z,58.89
2018-07-19T09:17:20.505Z,58.50
2018-07-19T09:19:48.941Z,59.34
2018-07-19T09:22:17.053Z,59.25
2018-07-19T09:24:45.712Z,57.07
2018-07-19T09:27:13.933Z,57.46
2018-07-19T09:29:42.085Z,57.83
2018-07-19T09:32:10.261Z,57.00
2018-07-19T09:34:38.538Z,57.97
2018-07-19T09:37:06.749Z,56.20
2018-07-19T09:39:34.958Z,55.93
2018-07-19T09:42:03.165Z,55.61
2018-07-19T09:44:31.341Z,54.76
2018-07-19T09:46:59.573Z,53.69
2018-07-19T09:49:27.785Z,52.69
2018-07-19T09:51:56.213Z,53.56
2018-07-19T09:55:00.521Z,54.65
2018-07-19T09:57:29.573Z,52.69
2018-07-19T09:59:57.841Z,52.51
2018-07-19T10:02:26.302Z,52.66
2018-07-19T10:04:55.204Z,53.50
2018-07-19T10:07:23.487Z,52.98
2018-07-19T10:09:51.788Z,52.74
2018-07-19T10:12:20.065Z,52.38
2018-07-19T10:14:48.534Z,52.50
2018-07-19T10:17:16.842Z,53.39
2018-07-19T10:19:44.990Z,53.66
2018-07-19T10:22:13.335Z,53.24
2018-07-19T10:24:41.560Z,52.34
2018-07-19T10:27:09.706Z,51.55
2018-07-19T10:29:37.923Z,52.37
2018-07-19T10:32:12.689Z,53.03
2018-07-19T10:34:40.743Z,52.52
2018-07-19T10:37:08.998Z,51.79
2018-07-19T10:39:37.196Z,51.64
2018-07-19T10:42:05.506Z,51.90
2018-07-19T10:44:33.694Z,50.33
2018-07-19T10:47:01.956Z,50.64
2018-07-19T10:49:30.800Z,50.80
2018-07-19T10:51:59.044Z,49.53
2018-07-19T10:54:27.256Z,49.83
2018-07-19T10:56:55.376Z,49.69
2018-07-19T10:59:23.583Z,47.42
2018-07-19T11:01:51.821Z,47.52
2018-07-19T11:04:19.960Z,48.44
2018-07-19T11:06:48.295Z,47.59
2018-07-19T11:09:16.598Z,48.00
2018-07-19T11:11:44.796Z,47.73
2018-07-19T11:14:12.975Z,45.92
2018-07-19T11:16:41.271Z,45.12
2018-07-19T11:19:09.467Z,45.51
2018-07-19T11:21:37.699Z,45.63
2018-07-19T11:24:06.096Z,45.71
2018-07-19T11:26:34.402Z,44.59
2018-07-19T11:29:02.660Z,45.62
2018-07-19T11:31:30.842Z,45.68
2018-07-19T11:33:59.073Z,46.14
2018-07-19T11:36:27.209Z,45.01
2018-07-19T11:38:55.553Z,44.66
2018-07-19T11:41:23.871Z,46.80
2018-07-19T11:43:52.016Z,45.56
2018-07-19T11:46:20.328Z,47.03
2018-07-19T11:48:48.695Z,47.08
2018-07-19T11:51:17.038Z,46.10
2018-07-19T11:53:45.226Z,45.39
2018-07-19T11:56:13.709Z,44.82
2018-07-19T11:58:41.916Z,46.54
2018-07-19T12:01:10.081Z,45.86
2018-07-19T12:03:38.216Z,45.83
2018-07-19T12:06:06.353Z,46.87
2018-07-19T12:08:35.041Z,47.52
2018-07-19T12:11:03.850Z,46.96
2018-07-19T12:13:32.003Z,46.53
2018-07-19T12:16:00.385Z,46.27
2018-07-19T12:18:28.633Z,46.46
2018-07-19T12:20:56.831Z,46.23
2018-07-19T12:23:25.123Z,45.90
2018-07-19T12:25:53.290Z,45.71
2018-07-19T12:28:21.431Z,47.14
2018-07-19T12:30:49.728Z,46.43
2018-07-19T12:33:17.916Z,47.28
2018-07-19T12:35:46.135Z,47.67
2018-07-19T12:38:14.517Z,46.96
2018-07-19T12:40:43.072Z,45.91
2018-07-19T12:43:11.218Z,46.34
2018-07-19T12:45:39.375Z,46.43
2018-07-19T12:48:07.569Z,46.90
2018-07-19T12:50:35.741Z,46.28
2018-07-19T12:53:03.918Z,46.75
2018-07-19T12:55:32.106Z,46.08
2018-07-19T12:58:00.394Z,45.23
2018-07-19T13:00:28.674Z,45.90
2018-07-19T13:02:56.871Z,44.67
2018-07-19T13:05:25.130Z,44.49
2018-07-19T13:07:53.407Z,45.00
2018-07-19T13:10:21.609Z,45.49
2018-07-19T13:12:50.043Z,45.61
2018-07-19T13:15:18.328Z,44.67
2018-07-19T13:17:46.576Z,43.24
2018-07-19T13:20:14.751Z,42.78
2018-07-19T13:22:42.929Z,43.25
2018-07-19T13:25:11.071Z,42.98
2018-07-19T13:27:39.277Z,43.05
2018-07-19T13:30:07.528Z,43.48
2018-07-19T13:32:35.805Z,43.05
2018-07-19T13:35:04.052Z,43.39
2018-07-19T13:37:32.364Z,44.07
2018-07-19T13:40:00.523Z,44.28
2018-07-19T13:42:28.784Z,43.79
2018-07-19T13:44:56.960Z,43.19
2018-07-19T13:47:25.252Z,43.56
2018-07-19T13:49:53.514Z,42.78
2018-07-19T13:53:32.616Z,43.09
2018-07-19T13:56:00.788Z,43.10
2018-07-19T13:58:28.950Z,43.50
2018-07-19T14:00:57.103Z,44.36
2018-07-19T14:03:25.605Z,43.05
2018-07-19T14:05:53.831Z,43.50
2018-07-19T14:08:22.072Z,42.70
2018-07-19T14:10:50.342Z,43.57
2018-07-19T14:13:18.498Z,42.40
2018-07-19T14:15:46.705Z,42.94
2018-07-19T14:18:14.902Z,42.14
2018-07-19T14:20:43.060Z,42.76
2018-07-19T14:23:11.365Z,41.55
2018-07-19T14:25:39.624Z,41.81
2018-07-19T14:28:07.737Z,40.64
2018-07-19T14:30:36.993Z,41.71
2018-07-19T14:33:05.130Z,42.47
2018-07-19T14:35:33.282Z,43.60
2018-07-19T14:38:02.136Z,44.11
2018-07-19T14:40:30.285Z,44.07
2018-07-19T14:42:59.278Z,41.82
2018-07-19T14:45:27.571Z,42.12
2018-07-19T14:47:55.728Z,42.38
2018-07-19T14:50:23.911Z,42.90
2018-07-19T14:52:52.107Z,42.94
2018-07-19T14:55:20.264Z,42.92
2018-07-19T14:57:48.560Z,43.71
2018-07-19T15:00:16.778Z,43.79
2018-07-19T15:02:45.824Z,44.35
2018-07-19T15:05:14.092Z,43.58
2018-07-19T15:07:42.433Z,43.91
2018-07-19T15:10:10.793Z,44.65
2018-07-19T15:12:38.974Z,44.58
2018-07-19T15:15:07.449Z,43.29
2018-07-19T15:17:35.602Z,43.16
2018-07-19T15:20:04.275Z,44.19
2018-07-19T15:22:32.458Z,44.66
2018-07-19T15:25:00.618Z,43.65
2018-07-19T15:27:28.869Z,43.47
2018-07-19T15:29:57.023Z,42.42
2018-07-19T15:32:25.186Z,42.34
2018-07-19T15:34:53.340Z,42.28
2018-07-19T15:37:21.457Z,43.93
2018-07-19T15:39:49.812Z,44.43
2018-07-19T15:42:17.983Z,44.24
2018-07-19T15:44:46.137Z,44.30
2018-07-19T15:47:14.344Z,44.31
2018-07-19T15:49:42.777Z,43.54
2018-07-19T15:52:10.980Z,43.98
2018-07-19T15:54:39.131Z,43.65
2018-07-19T15:57:07.304Z,43.10
2018-07-19T15:59:35.485Z,42.22
2018-07-19T16:02:03.738Z,42.40
2018-07-19T16:04:31.897Z,42.54
2018-07-19T16:07:00.531Z,43.14
2018-07-19T16:09:28.690Z,42.95
2018-07-19T16:11:56.973Z,42.96
2018-07-19T16:14:25.242Z,43.29
2018-07-19T16:16:53.484Z,42.46
2018-07-19T16:19:21.672Z,41.53
2018-07-19T16:21:49.857Z,41.82
2018-07-19T16:24:18.039Z,41.33
2018-07-19T16:26:46.408Z,41.52
2018-07-19T16:29:14.644Z,41.82
2018-07-19T16:31:42.800Z,41.43
2018-07-19T16:34:11.036Z,42.12
2018-07-19T16:36:39.193Z,41.99
2018-07-19T16:39:08.542Z,41.25
2018-07-19T16:41:36.995Z,41.11
2018-07-19T16:44:05.154Z,41.91
2018-07-19T16:46:33.317Z,41.97
2018-07-19T16:49:01.529Z,41.51
2018-07-19T16:51:29.854Z,42.24
2018-07-19T16:53:58.005Z,41.57
2018-07-19T16:56:26.406Z,42.18
2018-07-19T16:58:54.800Z,41.87
2018-07-19T17:01:22.961Z,42.14
2018-07-19T17:03:51.124Z,42.47
2018-07-19T17:06:19.311Z,41.52
2018-07-19T17:08:47.687Z,41.44
2018-07-19T17:11:16.154Z,42.13
2018-07-19T17:13:44.449Z,42.66
2018-07-19T17:16:12.595Z,42.53
2018-07-19T17:18:40.751Z,41.70
2018-07-19T17:21:09.061Z,42.63
2018-07-19T17:23:37.294Z,42.56
2018-07-19T17:26:05.455Z,43.13
2018-07-19T17:28:33.812Z,42.83
2018-07-19T17:31:01.953Z,43.14
2018-07-19T17:33:30.113Z,43.26
2018-07-19T17:35:58.367Z,42.98
2018-07-19T17:38:26.534Z,43.45
2018-07-19T17:40:54.797Z,43.14
2018-07-19T17:43:23.111Z,43.18
2018-07-19T17:45:51.282Z,42.73
2018-07-19T17:48:19.903Z,42.81
2018-07-19T17:50:48.159Z,43.25
2018-07-19T17:53:16.312Z,43.29
2018-07-19T17:55:44.481Z,43.23
2018-07-19T17:58:12.701Z,42.93
2018-07-19T18:00:40.879Z,43.46
2018-07-19T18:03:09.041Z,43.32
2018-07-19T18:05:37.249Z,43.59
2018-07-19T18:08:05.518Z,43.22
2018-07-19T18:10:33.729Z,43.93
2018-07-19T18:13:02.412Z,43.04
2018-07-19T18:15:30.574Z,43.47
2018-07-19T18:17:59.436Z,44.10
2018-07-19T18:20:27.670Z,43.93
2018-07-19T18:22:55.811Z,44.29
2018-07-19T18:25:23.975Z,44.16
2018-07-19T18:27:52.328Z,44.42
2018-07-19T18:30:20.545Z,45.06
2018-07-19T18:32:48.775Z,45.08
2018-07-19T18:37:50.258Z,44.87
2018-07-19T18:40:18.613Z,44.64
2018-07-19T18:42:46.971Z,45.09
2018-07-19T18:45:15.121Z,45.43
2018-07-19T18:47:43.244Z,45.37
2018-07-19T18:50:11.484Z,46.40
2018-07-19T18:52:39.646Z,46.56
2018-07-19T18:55:07.792Z,46.93
2018-07-19T18:57:36.057Z,46.08
2018-07-19T19:00:05.256Z,45.67
2018-07-19T19:02:33.536Z,46.51
2018-07-19T19:05:01.837Z,47.28
2018-07-19T19:07:30.005Z,46.94
2018-07-19T19:09:58.352Z,46.60
2018-07-19T19:12:26.608Z,47.05
2018-07-19T19:14:54.903Z,47.71
2018-07-19T19:17:23.167Z,47.99
2018-07-19T19:19:51.444Z,47.21
2018-07-19T19:22:19.773Z,47.17
2018-07-19T19:24:48.831Z,47.49
2018-07-19T19:27:17.020Z,50.17
2018-07-19T19:29:45.301Z,51.95
2018-07-19T19:32:13.481Z,52.30
2018-07-19T19:34:41.841Z,52.87
2018-07-19T19:37:10.028Z,50.98
2018-07-19T19:39:38.416Z,51.46
2018-07-19T19:42:06.649Z,52.19
2018-07-19T19:44:34.920Z,52.76
2018-07-19T19:47:03.047Z,50.81
2018-07-19T19:49:31.243Z,51.49
2018-07-19T19:51:59.460Z,52.12
2018-07-19T19:54:27.737Z,52.91
2018-07-19T19:56:56.022Z,53.56
2018-07-19T19:59:24.457Z,54.35
2018-07-19T20:01:52.976Z,53.46
2018-07-19T20:04:21.314Z,53.82
2018-07-19T20:06:49.485Z,54.79
2018-07-19T20:09:17.966Z,54.29
2018-07-19T20:11:46.187Z,54.64
2018-07-19T20:14:14.416Z,52.99
2018-07-19T20:16:42.818Z,54.14
2018-07-19T20:19:11.549Z,53.60
2018-07-19T20:21:39.833Z,53.46
2018-07-19T20:24:08.184Z,53.01
2018-07-19T20:26:36.489Z,53.96
2018-07-19T20:29:04.664Z,52.99
2018-07-19T20:31:32.934Z,54.29
2018-07-19T20:34:01.163Z,54.73
2018-07-19T20:36:29.347Z,55.30
2018-07-19T20:38:57.748Z,55.66
2018-07-19T20:41:26.044Z,54.95
2018-07-19T20:43:54.673Z,54.53
2018-07-19T20:46:22.900Z,54.88
2018-07-19T20:48:51.112Z,55.51
2018-07-19T20:51:19.420Z,54.20
2018-07-19T20:53:47.732Z,55.16
2018-07-19T20:56:15.923Z,56.10
2018-07-19T20:58:44.270Z,55.12
2018-07-19T21:01:12.505Z,55.49
2018-07-19T21:03:41.582Z,55.80
2018-07-19T21:06:09.918Z,56.43
2018-07-19T21:08:38.137Z,56.22
2018-07-19T21:11:06.390Z,55.58
2018-07-19T21:13:34.722Z,54.40
2018-07-19T21:16:03.000Z,55.12
2018-07-19T21:18:31.175Z,54.91
2018-07-19T21:20:59.353Z,53.38
2018-07-19T21:23:27.551Z,56.24
2018-07-19T21:25:55.848Z,54.29
2018-07-19T21:28:24.056Z,55.52
2018-07-19T21:30:52.291Z,55.19
2018-07-19T21:33:20.529Z,54.24
2018-07-19T21:35:48.838Z,54.95
2018-07-19T21:38:17.019Z,54.97
2018-07-19T21:40:45.238Z,56.00
2018-07-19T21:43:13.579Z,56.21
2018-07-19T21:45:41.848Z,56.41
2018-07-19T21:48:09.975Z,57.03
2018-07-19T21:50:38.328Z,53.88
2018-07-19T21:53:06.635Z,57.33
2018-07-19T21:55:35.979Z,56.61
2018-07-19T21:58:04.159Z,57.75
2018-07-19T22:00:32.371Z,57.11
2018-07-19T22:03:01.760Z,58.12
2018-07-19T22:05:29.922Z,56.12
2018-07-19T22:07:58.067Z,57.64
2018-07-19T22:10:26.248Z,56.49
2018-07-19T22:12:54.496Z,58.91
2018-07-19T22:15:22.942Z,60.38
2018-07-19T22:17:51.149Z,59.55
2018-07-19T22:20:19.308Z,60.17
2018-07-19T22:22:47.473Z,60.80
2018-07-19T22:25:15.674Z,60.74
2018-07-19T22:27:43.862Z,60.64
2018-07-19T22:30:12.189Z,62.10
2018-07-19T22:32:40.419Z,61.96
2018-07-19T22:35:08.667Z,61.64
2018-07-19T22:37:36.940Z,63.01
2018-07-19T22:40:05.150Z,63.60
2018-07-19T22:42:33.361Z,64.55
2018-07-19T22:45:01.626Z,65.17
2018-07-19T22:47:29.830Z,63.60
2018-07-19T22:49:58.325Z,64.49
2018-07-19T22:52:26.572Z,64.38
2018-07-19T22:54:54.806Z,64.88
2018-07-19T22:57:23.029Z,63.87
2018-07-19T22:59:51.187Z,64.79
2018-07-19T23:02:19.324Z,64.54
2018-07-19T23:04:47.588Z,63.53
2018-07-19T23:07:15.808Z,63.28
2018-07-19T23:09:44.054Z,63.01
2018-07-19T23:12:12.363Z,63.78
2018-07-19T23:14:40.551Z,62.86
2018-07-19T23:17:08.737Z,62.85
2018-07-19T23:19:37.024Z,63.55
2018-07-19T23:22:05.204Z,58.77
2018-07-19T23:24:33.364Z,59.29
2018-07-19T23:27:01.543Z,59.53
2018-07-19T23:29:29.687Z,57.80
2018-07-19T23:31:57.942Z,58.35
2018-07-19T23:34:27.040Z,58.64
2018-07-19T23:36:58.426Z,57.34
2018-07-19T23:39:34.811Z,58.06
2018-07-19T23:42:40.008Z,58.98
2018-07-19T23:45:12.583Z,59.95
2018-07-19T23:47:41.883Z,57.70
2018-07-19T23:50:10.021Z,59.09
2018-07-19T23:52:38.214Z,59.17
2018-07-19T23:55:06.375Z,59.12
2018-07-19T23:57:34.904Z,60.03
